Terrebonne, Canada
Current Conditions -  °F | °C
As of 1:00 AM on Saturday 25 Oct 2014 (Local Time) from CYHU Reporting Station
Clear Clear  
Wind Chill: 37°   Ceiling: Unl
Heat Index: 37°   Visibility: 9mi
Dew Point: 36°   Wind: 2mph
Humidity: 93%   Direction: NA
Pressure: 29.76"   Gusts: NA
Location:  45.68°N, 73.63°W
Report Text: CYHU 250500Z AUTO VRB02KT 9SM CLR 03/02 A2976 RMK SLP079
Loading
Personal Weather Stations






























Interactive Weather Map
Tropical Storm Tracking
New forecast layout! Learn more

10-Day Weather Forecast

Advertisements
Track Severe Weather on mobile